VABP/BHO METAR and TAF weather

Enter ICAO airport designator
Station Type Date Time Source
VABP METAR 2020/05/29 15:30 UTC NOAA

VABP 291530Z 25007KT 6000 FEW025 36/12 Q1004 NOSIG


Station Type Date Time Source
VABP Decoded METAR 2020/05/29 15:30 UTC NOAA

Bhopal / Bairagarh, India (VABP) 23-17N 077-21E 523M
May 29, 2020 - 11:30 AM EDT / 2020.05.29 1530 UTC
Wind: from the WSW (250 degrees) at 8 MPH (7 KT):0
Visibility: 3 mile(s):0
Sky conditions: mostly clear
Temperature: 96 F (36 C)
Dew Point: 53 F (12 C)
Relative Humidity: 23%
Pressure (altimeter): 29.65 in. Hg (1004 hPa)
ob: VABP 291530Z 25007KT 6000 FEW025 36/12 Q1004 NOSIG
cycle: 15

Station Type Date Time Source
VABP TAF 2020/03/26 12:00 UTC NOAA

TAF VABP 261100Z 2612/2718 14005KT 6000 SCT030 BKN100
BECMG 2615/2617 22005KT FEW030 SCT100
BECMG 2618/2620 05005KT FEW030 BKN100
BECMG 2703/2705 12005KT FEW030 SCT100
BECMG 2706/2708 14005KT 6000 SCT030 BKN100
TEMPO 2611/2613 14010G20KT 3000 -RA/TSRA FEW030CB SCT030 BKN100

Example: see airport list